Osg Courageous — WDF7122 — position and weather

sailwx.info

Track history (hours):
 
Tides and Currents Weather Stations Pressure Air Temp Water Temp Dewpoint Dewpoint Depression Visibility Wind Speed Wind Dir Waves Ship Positions

Osg Courageous

Owner: OSG Ship Management, Inc, Tampa, FL. More information available from US FCC via Universal Licensing System and Coast Guard Vessel Documentation Center.

Last reported at 2015-May-21 14:04 UTC. Time now 2015-May-22 22:16 UTC.
Position N 27°42' W 082°33'.

Length 187 m; draft 11 m.

Type: Tanker. MMSI: 367481310.

Date/timePositionNaut miles runAvg speedWind from/ knotsBaromVisibWave heightAir tempDewpointWater temp
2015-May-21 14:04N 27°42' W 082°33'610.6
2015-May-21 13:32N 27°47' W 082°31'9 8.9
2015-May-21 12:33N 27°55' W 082°27'2 1.9
2015-May-21 11:33N 27°57' W 082°27'0 0.0
2015-May-21 10:28N 27°57' W 082°27'0 0.0
2015-May-21 09:31N 27°57' W 082°27'0 0.0
2015-May-21 08:31N 27°57' W 082°27'0 0.0
2015-May-21 07:31N 27°57' W 082°27'0 0.0
2015-May-21 06:31N 27°57' W 082°27'0 0.0
2015-May-21 05:31N 27°57' W 082°27'0 0.0
2015-May-21 04:31N 27°57' W 082°27'0 0.0
2015-May-21 03:31N 27°57' W 082°27'0 0.0
2015-May-21 02:31N 27°57' W 082°27'0 0.0
2015-May-21 01:31N 27°57' W 082°27'0 0.0
2015-May-21 00:31N 27°57' W 082°27'0 0.0
2015-May-20 23:31N 27°57' W 082°27'0 0.0
2015-May-20 22:31N 27°57' W 082°27'0 0.0
2015-May-20 21:31N 27°57' W 082°27'0 0.0
2015-May-20 20:28N 27°57' W 082°27'1 0.6
2015-May-20 19:33N 27°56' W 082°27'0 0.0
2015-May-20 18:33N 27°56' W 082°27'0 0.0
2015-May-20 17:33N 27°56' W 082°27'0 0.0
2015-May-20 16:33N 27°56' W 082°27'0 0.0
2015-May-20 15:27N 27°56' W 082°27'0 0.0
2015-May-20 14:33N 27°56' W 082°27'0 0.0
2015-May-20 13:33N 27°56' W 082°27'0 0.0
2015-May-20 12:33N 27°56' W 082°27'0 0.0
2015-May-20 11:33N 27°56' W 082°27'0 0.0
2015-May-20 10:33N 27°56' W 082°27'0 0.0
2015-May-20 09:33N 27°56' W 082°27'0 0.0
2015-May-20 08:33N 27°56' W 082°27'0 0.0
2015-May-20 07:30N 27°56' W 082°27'0 0.0
2015-May-20 06:33N 27°56' W 082°27'0 0.0
2015-May-20 05:33N 27°56' W 082°27'0 0.0
2015-May-20 04:33N 27°56' W 082°27'0 0.0
2015-May-20 03:33N 27°56' W 082°27'0 0.0
2015-May-20 02:33N 27°56' W 082°27'0 0.0
2015-May-20 01:33N 27°56' W 082°27'0 0.0
2015-May-20 00:30N 27°56' W 082°27'0 0.0
2015-May-19 23:30N 27°56' W 082°27'0 0.0
2015-May-19 22:33N 27°56' W 082°27'0 0.0
2015-May-19 21:33N 27°56' W 082°27'0 0.0
2015-May-19 20:33N 27°56' W 082°27'0 0.0
2015-May-19 19:33N 27°56' W 082°27'0 0.0
2015-May-19 18:33N 27°56' W 082°27'0 0.0
2015-May-19 17:33N 27°56' W 082°27'1 0.5
2015-May-19 16:33N 27°57' W 082°27'1 1.0
2015-May-19 15:33N 27°56' W 082°27'7 7.1
2015-May-19 14:33N 27°49' W 082°27'9 8.8
2015-May-19 13:33N 27°42' W 082°33'184 3.6
2015-May-17 10:17N 25°39' W 080°01'5 7.4
2015-May-17 09:32N 25°44' W 080°00'7 6.7
2015-May-17 08:33N 25°51' W 080°01'6 6.3
2015-May-17 07:33N 25°57' W 080°00'6 6.2
2015-May-17 06:33N 26°03' W 079°60'6 6.1
2015-May-17 05:33N 26°09' W 079°60'6 6.1
2015-May-17 04:33N 26°16' W 079°59'6 6.1
2015-May-17 03:33N 26°22' W 079°59'6 6.5
2015-May-17 02:33N 26°28' W 079°59'7 6.5
2015-May-17 01:33N 26°35' W 079°59'10 7.0
2015-May-17 00:11N 26°44' W 079°59'6 7.3
2015-May-16 23:20N 26°50' W 079°58'6 7.1
2015-May-16 22:33N 26°56' W 079°59'8 8.5
2015-May-16 21:33N 27°04' W 079°59'  
Track history (hours):
 
Tides and Currents Weather Stations Pressure Air Temp Water Temp Dewpoint Dewpoint Depression Visibility Wind Speed Wind Dir Waves Ship Positions

Osg Courageous

Owner: OSG Ship Management, Inc, Tampa, FL. More information available from US FCC via Universal Licensing System and Coast Guard Vessel Documentation Center.

Last reported at 2015-May-21 14:04 UTC. Time now 2015-May-22 22:16 UTC.
Position N 27°42' W 082°33'.

Length 187 m; draft 11 m.

Type: Tanker. MMSI: 367481310.

Date/timePositionNaut miles runAvg speedWind from/ knotsBaromVisibWave heightAir tempDewpointWater temp
2015-May-21 14:04N 27°42' W 082°33'610.6
2015-May-21 13:32N 27°47' W 082°31'9 8.9
2015-May-21 12:33N 27°55' W 082°27'2 1.9
2015-May-21 11:33N 27°57' W 082°27'0 0.0
2015-May-21 10:28N 27°57' W 082°27'0 0.0
2015-May-21 09:31N 27°57' W 082°27'0 0.0
2015-May-21 08:31N 27°57' W 082°27'0 0.0
2015-May-21 07:31N 27°57' W 082°27'0 0.0
2015-May-21 06:31N 27°57' W 082°27'0 0.0
2015-May-21 05:31N 27°57' W 082°27'0 0.0
2015-May-21 04:31N 27°57' W 082°27'0 0.0
2015-May-21 03:31N 27°57' W 082°27'0 0.0
2015-May-21 02:31N 27°57' W 082°27'0 0.0
2015-May-21 01:31N 27°57' W 082°27'0 0.0
2015-May-21 00:31N 27°57' W 082°27'0 0.0
2015-May-20 23:31N 27°57' W 082°27'0 0.0
2015-May-20 22:31N 27°57' W 082°27'0 0.0
2015-May-20 21:31N 27°57' W 082°27'0 0.0
2015-May-20 20:28N 27°57' W 082°27'1 0.6
2015-May-20 19:33N 27°56' W 082°27'0 0.0
2015-May-20 18:33N 27°56' W 082°27'0 0.0
2015-May-20 17:33N 27°56' W 082°27'0 0.0
2015-May-20 16:33N 27°56' W 082°27'0 0.0
2015-May-20 15:27N 27°56' W 082°27'0 0.0
2015-May-20 14:33N 27°56' W 082°27'0 0.0
2015-May-20 13:33N 27°56' W 082°27'0 0.0
2015-May-20 12:33N 27°56' W 082°27'0 0.0
2015-May-20 11:33N 27°56' W 082°27'0 0.0
2015-May-20 10:33N 27°56' W 082°27'0 0.0
2015-May-20 09:33N 27°56' W 082°27'0 0.0
2015-May-20 08:33N 27°56' W 082°27'0 0.0
2015-May-20 07:30N 27°56' W 082°27'0 0.0
2015-May-20 06:33N 27°56' W 082°27'0 0.0
2015-May-20 05:33N 27°56' W 082°27'0 0.0
2015-May-20 04:33N 27°56' W 082°27'0 0.0
2015-May-20 03:33N 27°56' W 082°27'0 0.0
2015-May-20 02:33N 27°56' W 082°27'0 0.0
2015-May-20 01:33N 27°56' W 082°27'0 0.0
2015-May-20 00:30N 27°56' W 082°27'0 0.0
2015-May-19 23:30N 27°56' W 082°27'0 0.0
2015-May-19 22:33N 27°56' W 082°27'0 0.0
2015-May-19 21:33N 27°56' W 082°27'0 0.0
2015-May-19 20:33N 27°56' W 082°27'0 0.0
2015-May-19 19:33N 27°56' W 082°27'0 0.0
2015-May-19 18:33N 27°56' W 082°27'0 0.0
2015-May-19 17:33N 27°56' W 082°27'1 0.5
2015-May-19 16:33N 27°57' W 082°27'1 1.0
2015-May-19 15:33N 27°56' W 082°27'7 7.1
2015-May-19 14:33N 27°49' W 082°27'9 8.8
2015-May-19 13:33N 27°42' W 082°33'184 3.6
2015-May-17 10:17N 25°39' W 080°01'5 7.4
2015-May-17 09:32N 25°44' W 080°00'7 6.7
2015-May-17 08:33N 25°51' W 080°01'6 6.3
2015-May-17 07:33N 25°57' W 080°00'6 6.2
2015-May-17 06:33N 26°03' W 079°60'6 6.1
2015-May-17 05:33N 26°09' W 079°60'6 6.1
2015-May-17 04:33N 26°16' W 079°59'6 6.1
2015-May-17 03:33N 26°22' W 079°59'6 6.5
2015-May-17 02:33N 26°28' W 079°59'7 6.5
2015-May-17 01:33N 26°35' W 079°59'10 7.0
2015-May-17 00:11N 26°44' W 079°59'6 7.3
2015-May-16 23:20N 26°50' W 079°58'6 7.1
2015-May-16 22:33N 26°56' W 079°59'8 8.5
2015-May-16 21:33N 27°04' W 079°59'  

Dump ship's entire track history